sensor_id;sensor_type;location;lat;lon;timestamp;temperature;humidity
12981;DHT22;6555;50.468;8.480;2022-07-23T00:02:06;25.20;43.30
12981;DHT22;6555;50.468;8.480;2022-07-23T00:07:36;25.00;42.60
12981;DHT22;6555;50.468;8.480;2022-07-23T00:12:53;24.90;43.70
12981;DHT22;6555;50.468;8.480;2022-07-23T00:18:24;24.80;42.90
12981;DHT22;6555;50.468;8.480;2022-07-23T00:23:40;24.60;43.70
12981;DHT22;6555;50.468;8.480;2022-07-23T00:29:11;24.50;43.10
12981;DHT22;6555;50.468;8.480;2022-07-23T00:34:28;24.40;44.30
12981;DHT22;6555;50.468;8.480;2022-07-23T00:39:58;24.40;43.60
12981;DHT22;6555;50.468;8.480;2022-07-23T00:45:15;24.40;44.70
12981;DHT22;6555;50.468;8.480;2022-07-23T00:50:46;24.30;44.00
12981;DHT22;6555;50.468;8.480;2022-07-23T00:56:02;24.40;44.80
12981;DHT22;6555;50.468;8.480;2022-07-23T01:01:34;24.30;43.90
12981;DHT22;6555;50.468;8.480;2022-07-23T01:06:51;24.20;44.90
12981;DHT22;6555;50.468;8.480;2022-07-23T01:12:21;24.20;44.20
12981;DHT22;6555;50.468;8.480;2022-07-23T01:17:38;24.20;45.10
12981;DHT22;6555;50.468;8.480;2022-07-23T01:23:11;24.20;44.60
12981;DHT22;6555;50.468;8.480;2022-07-23T01:28:31;24.10;45.20
12981;DHT22;6555;50.468;8.480;2022-07-23T01:34:01;24.00;44.30
12981;DHT22;6555;50.468;8.480;2022-07-23T01:39:19;23.90;45.20
12981;DHT22;6555;50.468;8.480;2022-07-23T01:44:50;23.80;44.70
12981;DHT22;6555;50.468;8.480;2022-07-23T01:50:08;23.80;45.40
12981;DHT22;6555;50.468;8.480;2022-07-23T01:56:03;23.70;44.80
12981;DHT22;6555;50.468;8.480;2022-07-23T02:01:19;23.70;45.90
12981;DHT22;6555;50.468;8.480;2022-07-23T02:06:50;23.60;45.70
12981;DHT22;6555;50.468;8.480;2022-07-23T02:12:08;23.50;45.70
12981;DHT22;6555;50.468;8.480;2022-07-23T02:17:39;23.50;45.30
12981;DHT22;6555;50.468;8.480;2022-07-23T02:22:55;23.40;46.00
12981;DHT22;6555;50.468;8.480;2022-07-23T02:28:26;23.40;45.20
12981;DHT22;6555;50.468;8.480;2022-07-23T02:33:43;23.30;47.10
12981;DHT22;6555;50.468;8.480;2022-07-23T02:39:13;23.30;45.60
12981;DHT22;6555;50.468;8.480;2022-07-23T02:44:30;23.20;46.40
12981;DHT22;6555;50.468;8.480;2022-07-23T02:50:01;23.20;45.70
12981;DHT22;6555;50.468;8.480;2022-07-23T02:55:18;23.10;46.40
12981;DHT22;6555;50.468;8.480;2022-07-23T03:00:50;23.00;45.70
12981;DHT22;6555;50.468;8.480;2022-07-23T03:06:07;23.00;46.70
12981;DHT22;6555;50.468;8.480;2022-07-23T03:11:37;22.90;46.10
12981;DHT22;6555;50.468;8.480;2022-07-23T03:16:55;22.80;47.10
12981;DHT22;6555;50.468;8.480;2022-07-23T03:22:26;22.80;46.50
12981;DHT22;6555;50.468;8.480;2022-07-23T03:27:42;22.80;48.00
12981;DHT22;6555;50.468;8.480;2022-07-23T03:33:14;22.80;46.60
12981;DHT22;6555;50.468;8.480;2022-07-23T03:38:31;22.80;47.60
12981;DHT22;6555;50.468;8.480;2022-07-23T03:44:01;22.80;46.70
12981;DHT22;6555;50.468;8.480;2022-07-23T03:49:18;22.80;47.40
12981;DHT22;6555;50.468;8.480;2022-07-23T03:54:50;22.70;46.90
12981;DHT22;6555;50.468;8.480;2022-07-23T04:00:09;22.60;47.40
12981;DHT22;6555;50.468;8.480;2022-07-23T04:05:40;22.50;47.30
12981;DHT22;6555;50.468;8.480;2022-07-23T04:10:57;22.50;48.00
12981;DHT22;6555;50.468;8.480;2022-07-23T04:16:27;22.50;47.20
12981;DHT22;6555;50.468;8.480;2022-07-23T04:21:46;22.50;48.10
12981;DHT22;6555;50.468;8.480;2022-07-23T04:27:17;22.40;47.50
12981;DHT22;6555;50.468;8.480;2022-07-23T04:32:33;22.40;48.10
12981;DHT22;6555;50.468;8.480;2022-07-23T04:38:09;22.40;47.40
12981;DHT22;6555;50.468;8.480;2022-07-23T04:43:30;22.40;48.20
12981;DHT22;6555;50.468;8.480;2022-07-23T04:49:00;22.30;47.50
12981;DHT22;6555;50.468;8.480;2022-07-23T04:54:18;22.30;48.40
12981;DHT22;6555;50.468;8.480;2022-07-23T04:59:48;22.30;48.10
12981;DHT22;6555;50.468;8.480;2022-07-23T05:05:06;22.30;48.90
12981;DHT22;6555;50.468;8.480;2022-07-23T05:10:44;22.30;48.10
12981;DHT22;6555;50.468;8.480;2022-07-23T05:16:00;22.40;49.10
12981;DHT22;6555;50.468;8.480;2022-07-23T05:21:31;22.40;48.30
12981;DHT22;6555;50.468;8.480;2022-07-23T05:26:50;22.50;49.10
12981;DHT22;6555;50.468;8.480;2022-07-23T05:32:20;22.40;48.30
12981;DHT22;6555;50.468;8.480;2022-07-23T05:37:45;22.50;49.10
12981;DHT22;6555;50.468;8.480;2022-07-23T05:43:17;22.50;48.30
12981;DHT22;6555;50.468;8.480;2022-07-23T05:48:40;22.50;48.90
12981;DHT22;6555;50.468;8.480;2022-07-23T05:54:37;22.60;48.20
12981;DHT22;6555;50.468;8.480;2022-07-23T05:59:54;22.60;48.60
12981;DHT22;6555;50.468;8.480;2022-07-23T06:05:27;22.60;48.30
12981;DHT22;6555;50.468;8.480;2022-07-23T06:10:43;22.70;48.60
12981;DHT22;6555;50.468;8.480;2022-07-23T06:16:14;22.80;48.20
12981;DHT22;6555;50.468;8.480;2022-07-23T06:21:44;22.90;48.80
12981;DHT22;6555;50.468;8.480;2022-07-23T06:27:02;23.00;48.60
12981;DHT22;6555;50.468;8.480;2022-07-23T06:32:39;23.10;48.20
12981;DHT22;6555;50.468;8.480;2022-07-23T06:37:56;23.30;48.60
12981;DHT22;6555;50.468;8.480;2022-07-23T06:43:26;23.50;48.30
12981;DHT22;6555;50.468;8.480;2022-07-23T06:48:44;23.60;48.20
12981;DHT22;6555;50.468;8.480;2022-07-23T06:54:14;23.80;48.00
12981;DHT22;6555;50.468;8.480;2022-07-23T06:59:30;23.90;47.80
12981;DHT22;6555;50.468;8.480;2022-07-23T07:05:10;24.00;47.60
12981;DHT22;6555;50.468;8.480;2022-07-23T07:10:27;24.10;47.60
12981;DHT22;6555;50.468;8.480;2022-07-23T07:15:57;24.20;47.60
12981;DHT22;6555;50.468;8.480;2022-07-23T07:21:14;24.30;47.40
12981;DHT22;6555;50.468;8.480;2022-07-23T07:26:45;24.40;47.30
12981;DHT22;6555;50.468;8.480;2022-07-23T07:32:01;24.50;47.10
12981;DHT22;6555;50.468;8.480;2022-07-23T07:37:52;24.50;47.10
12981;DHT22;6555;50.468;8.480;2022-07-23T07:43:09;24.60;47.00
12981;DHT22;6555;50.468;8.480;2022-07-23T07:48:39;24.60;47.10
12981;DHT22;6555;50.468;8.480;2022-07-23T07:53:56;24.70;47.20
12981;DHT22;6555;50.468;8.480;2022-07-23T07:59:27;24.80;47.30
12981;DHT22;6555;50.468;8.480;2022-07-23T08:04:44;25.00;47.10
12981;DHT22;6555;50.468;8.480;2022-07-23T08:10:16;25.20;46.80
12981;DHT22;6555;50.468;8.480;2022-07-23T08:15:32;25.40;46.20
12981;DHT22;6555;50.468;8.480;2022-07-23T08:21:02;25.50;46.60
12981;DHT22;6555;50.468;8.480;2022-07-23T08:26:21;25.80;46.20
12981;DHT22;6555;50.468;8.480;2022-07-23T08:31:52;26.00;46.70
12981;DHT22;6555;50.468;8.480;2022-07-23T08:37:28;26.20;46.10
12981;DHT22;6555;50.468;8.480;2022-07-23T08:43:00;26.50;46.30
12981;DHT22;6555;50.468;8.480;2022-07-23T08:48:19;26.70;45.90
12981;DHT22;6555;50.468;8.480;2022-07-23T08:53:50;26.90;45.80
12981;DHT22;6555;50.468;8.480;2022-07-23T08:59:08;27.10;46.00
12981;DHT22;6555;50.468;8.480;2022-07-23T09:04:39;27.40;45.70
12981;DHT22;6555;50.468;8.480;2022-07-23T09:10:06;27.60;45.10
12981;DHT22;6555;50.468;8.480;2022-07-23T09:15:49;27.80;44.60
12981;DHT22;6555;50.468;8.480;2022-07-23T09:21:12;28.10;44.50
12981;DHT22;6555;50.468;8.480;2022-07-23T09:26:43;28.30;44.40
12981;DHT22;6555;50.468;8.480;2022-07-23T09:32:03;28.60;44.20
12981;DHT22;6555;50.468;8.480;2022-07-23T09:37:33;28.80;44.50
12981;DHT22;6555;50.468;8.480;2022-07-23T09:42:55;29.00;44.40
12981;DHT22;6555;50.468;8.480;2022-07-23T09:48:26;29.20;44.10
12981;DHT22;6555;50.468;8.480;2022-07-23T09:53:42;29.40;43.20
12981;DHT22;6555;50.468;8.480;2022-07-23T09:59:12;29.60;43.50
12981;DHT22;6555;50.468;8.480;2022-07-23T10:04:32;29.70;42.60
12981;DHT22;6555;50.468;8.480;2022-07-23T10:10:11;29.80;42.90
12981;DHT22;6555;50.468;8.480;2022-07-23T10:16:05;29.80;42.50
12981;DHT22;6555;50.468;8.480;2022-07-23T10:21:54;29.90;42.70
12981;DHT22;6555;50.468;8.480;2022-07-23T10:27:26;30.00;42.70
12981;DHT22;6555;50.468;8.480;2022-07-23T10:33:15;30.00;42.40
12981;DHT22;6555;50.468;8.480;2022-07-23T10:38:40;30.00;42.30
12981;DHT22;6555;50.468;8.480;2022-07-23T10:44:15;30.00;42.60
12981;DHT22;6555;50.468;8.480;2022-07-23T10:49:32;30.20;42.40
12981;DHT22;6555;50.468;8.480;2022-07-23T10:55:40;30.30;42.50
12981;DHT22;6555;50.468;8.480;2022-07-23T11:00:56;30.50;41.90
12981;DHT22;6555;50.468;8.480;2022-07-23T11:12:37;30.60;41.40
12981;DHT22;6555;50.468;8.480;2022-07-23T11:18:12;30.60;41.10
12981;DHT22;6555;50.468;8.480;2022-07-23T11:24:00;30.70;41.20
12981;DHT22;6555;50.468;8.480;2022-07-23T11:29:48;30.90;41.20
12981;DHT22;6555;50.468;8.480;2022-07-23T11:35:29;31.20;41.50
12981;DHT22;6555;50.468;8.480;2022-07-23T11:41:03;31.50;41.00
12981;DHT22;6555;50.468;8.480;2022-07-23T11:46:20;31.60;40.40
12981;DHT22;6555;50.468;8.480;2022-07-23T11:52:03;31.80;40.80
12981;DHT22;6555;50.468;8.480;2022-07-23T11:57:24;32.00;40.60
12981;DHT22;6555;50.468;8.480;2022-07-23T12:02:57;32.20;40.20
12981;DHT22;6555;50.468;8.480;2022-07-23T12:08:15;32.40;39.90
12981;DHT22;6555;50.468;8.480;2022-07-23T12:13:56;32.60;40.20
12981;DHT22;6555;50.468;8.480;2022-07-23T12:19:14;32.70;39.80
12981;DHT22;6555;50.468;8.480;2022-07-23T12:24:56;32.80;39.60
12981;DHT22;6555;50.468;8.480;2022-07-23T12:30:22;33.00;40.00
12981;DHT22;6555;50.468;8.480;2022-07-23T12:35:54;33.20;37.00
12981;DHT22;6555;50.468;8.480;2022-07-23T12:41:10;33.40;39.00
12981;DHT22;6555;50.468;8.480;2022-07-23T12:46:41;33.50;38.80
12981;DHT22;6555;50.468;8.480;2022-07-23T12:51:57;33.70;38.00
12981;DHT22;6555;50.468;8.480;2022-07-23T12:57:45;33.70;38.20
12981;DHT22;6555;50.468;8.480;2022-07-23T13:03:03;33.80;37.70
12981;DHT22;6555;50.468;8.480;2022-07-23T13:08:34;33.90;37.40
12981;DHT22;6555;50.468;8.480;2022-07-23T13:13:50;34.00;37.60
12981;DHT22;6555;50.468;8.480;2022-07-23T13:19:25;34.10;37.50
12981;DHT22;6555;50.468;8.480;2022-07-23T13:24:42;34.30;36.70
12981;DHT22;6555;50.468;8.480;2022-07-23T13:30:12;34.50;37.10
12981;DHT22;6555;50.468;8.480;2022-07-23T13:35:33;34.70;36.20
12981;DHT22;6555;50.468;8.480;2022-07-23T13:41:03;34.80;36.20
12981;DHT22;6555;50.468;8.480;2022-07-23T13:46:19;34.90;35.20
12981;DHT22;6555;50.468;8.480;2022-07-23T13:51:50;35.10;35.70
12981;DHT22;6555;50.468;8.480;2022-07-23T13:57:10;35.20;35.00
12981;DHT22;6555;50.468;8.480;2022-07-23T14:02:41;35.30;35.40
12981;DHT22;6555;50.468;8.480;2022-07-23T14:07:59;35.40;34.10
12981;DHT22;6555;50.468;8.480;2022-07-23T14:13:29;35.40;34.30
12981;DHT22;6555;50.468;8.480;2022-07-23T14:18:59;35.40;33.70
12981;DHT22;6555;50.468;8.480;2022-07-23T14:24:17;35.50;33.10
12981;DHT22;6555;50.468;8.480;2022-07-23T14:29:49;35.40;34.50
12981;DHT22;6555;50.468;8.480;2022-07-23T14:35:06;35.40;33.20
12981;DHT22;6555;50.468;8.480;2022-07-23T14:40:38;35.20;33.80
12981;DHT22;6555;50.468;8.480;2022-07-23T14:45:55;35.20;33.20
12981;DHT22;6555;50.468;8.480;2022-07-23T14:51:25;35.20;33.80
12981;DHT22;6555;50.468;8.480;2022-07-23T14:56:44;35.30;33.40
12981;DHT22;6555;50.468;8.480;2022-07-23T15:02:14;35.40;33.30
12981;DHT22;6555;50.468;8.480;2022-07-23T15:07:30;35.40;32.90
12981;DHT22;6555;50.468;8.480;2022-07-23T15:13:02;35.40;33.00
12981;DHT22;6555;50.468;8.480;2022-07-23T15:18:19;35.40;32.50
12981;DHT22;6555;50.468;8.480;2022-07-23T15:23:49;35.30;32.80
12981;DHT22;6555;50.468;8.480;2022-07-23T15:29:08;35.30;32.20
12981;DHT22;6555;50.468;8.480;2022-07-23T15:34:39;35.30;32.60
12981;DHT22;6555;50.468;8.480;2022-07-23T15:39:56;35.40;32.00
12981;DHT22;6555;50.468;8.480;2022-07-23T15:45:49;35.50;32.40
12981;DHT22;6555;50.468;8.480;2022-07-23T15:51:08;35.50;31.60
12981;DHT22;6555;50.468;8.480;2022-07-23T15:56:37;35.50;32.10
12981;DHT22;6555;50.468;8.480;2022-07-23T16:01:58;35.50;31.60
12981;DHT22;6555;50.468;8.480;2022-07-23T16:07:28;35.50;31.70
12981;DHT22;6555;50.468;8.480;2022-07-23T16:12:44;35.40;31.10
12981;DHT22;6555;50.468;8.480;2022-07-23T16:18:17;35.30;31.50
12981;DHT22;6555;50.468;8.480;2022-07-23T16:23:33;35.20;31.10
12981;DHT22;6555;50.468;8.480;2022-07-23T16:29:03;35.00;31.70
12981;DHT22;6555;50.468;8.480;2022-07-23T16:34:28;34.90;30.80
12981;DHT22;6555;50.468;8.480;2022-07-23T16:39:58;34.90;31.10
12981;DHT22;6555;50.468;8.480;2022-07-23T16:45:14;34.90;30.60
12981;DHT22;6555;50.468;8.480;2022-07-23T16:50:46;34.80;31.00
12981;DHT22;6555;50.468;8.480;2022-07-23T16:56:04;34.70;30.40
12981;DHT22;6555;50.468;8.480;2022-07-23T17:01:34;34.60;31.00
12981;DHT22;6555;50.468;8.480;2022-07-23T17:06:52;34.50;30.60
12981;DHT22;6555;50.468;8.480;2022-07-23T17:12:24;34.40;30.90
12981;DHT22;6555;50.468;8.480;2022-07-23T17:17:40;34.30;30.50
12981;DHT22;6555;50.468;8.480;2022-07-23T17:23:12;34.20;30.90
12981;DHT22;6555;50.468;8.480;2022-07-23T17:28:29;34.00;30.50
12981;DHT22;6555;50.468;8.480;2022-07-23T17:33:59;33.90;30.50
12981;DHT22;6555;50.468;8.480;2022-07-23T17:39:17;33.60;31.10
12981;DHT22;6555;50.468;8.480;2022-07-23T17:44:47;33.40;30.90
12981;DHT22;6555;50.468;8.480;2022-07-23T17:50:04;33.30;30.70
12981;DHT22;6555;50.468;8.480;2022-07-23T17:55:36;33.10;31.00
12981;DHT22;6555;50.468;8.480;2022-07-23T18:00:53;32.90;30.30
12981;DHT22;6555;50.468;8.480;2022-07-23T18:06:23;32.70;30.70
12981;DHT22;6555;50.468;8.480;2022-07-23T18:11:41;32.60;30.50
12981;DHT22;6555;50.468;8.480;2022-07-23T18:17:11;32.40;30.80
12981;DHT22;6555;50.468;8.480;2022-07-23T18:22:27;32.30;30.70
12981;DHT22;6555;50.468;8.480;2022-07-23T18:27:59;32.00;31.00
12981;DHT22;6555;50.468;8.480;2022-07-23T18:33:17;31.80;30.60
12981;DHT22;6555;50.468;8.480;2022-07-23T18:39:00;31.70;31.00
12981;DHT22;6555;50.468;8.480;2022-07-23T18:44:32;31.50;30.90
12981;DHT22;6555;50.468;8.480;2022-07-23T18:49:49;31.30;31.10
12981;DHT22;6555;50.468;8.480;2022-07-23T18:55:19;31.20;31.40
12981;DHT22;6555;50.468;8.480;2022-07-23T19:00:36;31.10;31.40
12981;DHT22;6555;50.468;8.480;2022-07-23T19:06:07;30.90;31.00
12981;DHT22;6555;50.468;8.480;2022-07-23T19:11:23;30.80;31.10
12981;DHT22;6555;50.468;8.480;2022-07-23T19:16:54;30.60;31.30
12981;DHT22;6555;50.468;8.480;2022-07-23T19:22:11;30.40;31.30
12981;DHT22;6555;50.468;8.480;2022-07-23T19:27:41;30.30;31.50
12981;DHT22;6555;50.468;8.480;2022-07-23T19:32:58;30.10;31.70
12981;DHT22;6555;50.468;8.480;2022-07-23T19:38:28;29.90;31.50
12981;DHT22;6555;50.468;8.480;2022-07-23T19:43:45;29.80;31.70
12981;DHT22;6555;50.468;8.480;2022-07-23T19:49:16;29.60;31.80
12981;DHT22;6555;50.468;8.480;2022-07-23T19:54:32;29.50;32.10
12981;DHT22;6555;50.468;8.480;2022-07-23T20:00:03;29.30;32.20
12981;DHT22;6555;50.468;8.480;2022-07-23T20:05:21;29.10;32.40
12981;DHT22;6555;50.468;8.480;2022-07-23T20:10:52;28.80;32.60
12981;DHT22;6555;50.468;8.480;2022-07-23T20:16:09;28.50;32.50
12981;DHT22;6555;50.468;8.480;2022-07-23T20:21:40;28.30;32.60
12981;DHT22;6555;50.468;8.480;2022-07-23T20:27:01;28.10;33.00
12981;DHT22;6555;50.468;8.480;2022-07-23T20:32:31;27.90;32.60
12981;DHT22;6555;50.468;8.480;2022-07-23T20:37:48;27.80;33.00
12981;DHT22;6555;50.468;8.480;2022-07-23T20:43:19;27.70;32.90
12981;DHT22;6555;50.468;8.480;2022-07-23T20:48:35;27.50;33.40
12981;DHT22;6555;50.468;8.480;2022-07-23T20:54:07;27.30;33.20
12981;DHT22;6555;50.468;8.480;2022-07-23T20:59:24;27.10;34.00
12981;DHT22;6555;50.468;8.480;2022-07-23T21:04:54;26.90;33.30
12981;DHT22;6555;50.468;8.480;2022-07-23T21:10:12;26.70;33.80
12981;DHT22;6555;50.468;8.480;2022-07-23T21:15:42;26.60;33.70
12981;DHT22;6555;50.468;8.480;2022-07-23T21:20:58;26.50;34.10
12981;DHT22;6555;50.468;8.480;2022-07-23T21:26:31;26.30;33.90
12981;DHT22;6555;50.468;8.480;2022-07-23T21:31:48;26.20;34.60
12981;DHT22;6555;50.468;8.480;2022-07-23T21:37:18;26.10;34.30
12981;DHT22;6555;50.468;8.480;2022-07-23T21:42:35;26.00;35.00
12981;DHT22;6555;50.468;8.480;2022-07-23T21:48:06;25.90;34.30
12981;DHT22;6555;50.468;8.480;2022-07-23T21:53:22;25.80;34.80
12981;DHT22;6555;50.468;8.480;2022-07-23T21:58:53;25.70;34.60
12981;DHT22;6555;50.468;8.480;2022-07-23T22:04:10;25.60;35.20
12981;DHT22;6555;50.468;8.480;2022-07-23T22:09:40;25.50;34.90
12981;DHT22;6555;50.468;8.480;2022-07-23T22:14:57;25.40;35.50
12981;DHT22;6555;50.468;8.480;2022-07-23T22:20:28;25.20;35.20
12981;DHT22;6555;50.468;8.480;2022-07-23T22:25:44;25.00;35.80
12981;DHT22;6555;50.468;8.480;2022-07-23T22:31:15;24.90;35.40
12981;DHT22;6555;50.468;8.480;2022-07-23T22:36:32;24.70;36.10
12981;DHT22;6555;50.468;8.480;2022-07-23T22:42:03;24.50;35.80
12981;DHT22;6555;50.468;8.480;2022-07-23T22:47:20;24.40;36.40
12981;DHT22;6555;50.468;8.480;2022-07-23T22:52:50;24.30;36.10
12981;DHT22;6555;50.468;8.480;2022-07-23T22:58:06;24.20;36.70
12981;DHT22;6555;50.468;8.480;2022-07-23T23:03:40;24.10;36.20
12981;DHT22;6555;50.468;8.480;2022-07-23T23:08:57;24.00;36.90
12981;DHT22;6555;50.468;8.480;2022-07-23T23:14:27;23.90;36.60
12981;DHT22;6555;50.468;8.480;2022-07-23T23:19:44;23.80;36.90
12981;DHT22;6555;50.468;8.480;2022-07-23T23:25:14;23.80;36.70
12981;DHT22;6555;50.468;8.480;2022-07-23T23:30:30;23.70;37.30
12981;DHT22;6555;50.468;8.480;2022-07-23T23:36:01;23.60;37.00
12981;DHT22;6555;50.468;8.480;2022-07-23T23:41:18;23.60;37.60
12981;DHT22;6555;50.468;8.480;2022-07-23T23:46:48;23.50;37.10
12981;DHT22;6555;50.468;8.480;2022-07-23T23:52:05;23.40;37.60
12981;DHT22;6555;50.468;8.480;2022-07-23T23:57:36;23.30;37.40
